Back to Top

Language: 

My Weather Underground Personal Weather Station Historical Data with Graphs...

Delerius Weather Station Historical Data
Daily Summary for March 20, 2017 Units:  Metric    English   Both
« Previous Day
Next Day »
Daily Weekly Monthly Yearly Custom
  High: Low: Average:
Temperature: 10.9 °C 4.4 °C 9.1 °C
Dew Point: 9.5 °C 1.7 °C 5.9 °C
Humidity: 94 % 57 % 81 %
Wind Speed: 29 km/h 1.6 km/h 15.9 km/h
Wind Gust: 51.5 km/h - -
Wind:- - WSW
Pressure: 1002.3 hPa 997.2 hPa -
Precipitation: 1.52 mm    
Historical Graphs
 
 
Tabular Data for March 20, 2017
Time Temperature Dew Point Pressure Wind Wind Speed Wind Gust Humidity Rainfall Rate (Hourly) solar Conditions
00:04 10.2 °C 9.3 °C 1002.3 hPa SE 3.2 km/h 8 km/h 94 % 0 mm 0 W/m2
00:09 10.2 °C 9.3 °C 1001.9 hPa SE 3.2 km/h 9.7 km/h 94 % 0 mm 0 W/m2
00:14 10.2 °C 9.3 °C 1001.9 hPa SE 4.8 km/h 11.3 km/h 94 % 0 mm 0 W/m2
00:19 10.2 °C 9.3 °C 1001.9 hPa SSE 6.4 km/h 11.3 km/h 94 % 0 mm 0 W/m2
00:24 10.2 °C 9.3 °C 1001.9 hPa SSE 4.8 km/h 11.3 km/h 94 % 0 mm 0 W/m2
00:29 10.2 °C 9.3 °C 1001.9 hPa SSE 4.8 km/h 9.7 km/h 94 % 0 mm 0 W/m2
00:34 10.2 °C 9.3 °C 1001.9 hPa SSE 4.8 km/h 9.7 km/h 94 % 0 mm 0 W/m2
00:39 10.2 °C 9.3 °C 1001.9 hPa SSE 3.2 km/h 8 km/h 94 % 0 mm 0 W/m2
00:44 10.2 °C 9.3 °C 1001.9 hPa SSE 1.6 km/h 8 km/h 94 % 0 mm 0 W/m2
00:50 10.2 °C 9.3 °C 1001.6 hPa SSE 3.2 km/h 8 km/h 94 % 0 mm 0 W/m2
00:55 10.2 °C 9.3 °C 1001.6 hPa South 3.2 km/h 11.3 km/h 94 % 0 mm 0 W/m2
01:00 10.2 °C 9.3 °C 1001.6 hPa SSW 4.8 km/h 12.9 km/h 94 % 0 mm 0 W/m2
01:05 10.3 °C 9.4 °C 1001.6 hPa SSW 4.8 km/h 12.9 km/h 94 % 0 mm 0 W/m2
01:10 10.3 °C 9.4 °C 1001.6 hPa SW 6.4 km/h 19.3 km/h 94 % 0 mm 0 W/m2
01:15 10.4 °C 9.3 °C 1001.2 hPa SW 9.7 km/h 20.9 km/h 93 % 0 mm 0 W/m2
01:20 10.6 °C 9.5 °C 1001.2 hPa SW 11.3 km/h 20.9 km/h 93 % 0 mm 0 W/m2
01:25 10.6 °C 9.3 °C 1000.9 hPa SW 11.3 km/h 19.3 km/h 92 % 0 mm 0 W/m2
01:30 10.7 °C 9.4 °C 1000.9 hPa SW 11.3 km/h 17.7 km/h 92 % 0 mm 0 W/m2
01:31 10.7 °C 9.4 °C 1001.2 hPa SW 11.3 km/h 17.7 km/h 92 % 0 mm 0 W/m2
01:36 10.7 °C 9.4 °C 1000.9 hPa WSW 9.7 km/h 19.3 km/h 92 % 0 mm 0 W/m2
01:41 10.7 °C 9.3 °C 1000.9 hPa WSW 9.7 km/h 19.3 km/h 91 % 0 mm 0 W/m2
01:46 10.7 °C 9.3 °C 1000.9 hPa WSW 9.7 km/h 19.3 km/h 91 % 0 mm 0 W/m2
01:51 10.8 °C 9.4 °C 1000.9 hPa SW 11.3 km/h 20.9 km/h 91 % 0 mm 0 W/m2
01:56 10.8 °C 9.4 °C 1000.6 hPa SW 11.3 km/h 20.9 km/h 91 % 0 mm 0 W/m2
02:01 10.8 °C 9.4 °C 1000.6 hPa SW 12.9 km/h 24.1 km/h 91 % 0 mm 0 W/m2
02:06 10.8 °C 9.4 °C 1000.6 hPa SW 12.9 km/h 25.7 km/h 91 % 0 mm 0 W/m2
02:11 10.8 °C 9.4 °C 1000.6 hPa SW 11.3 km/h 25.7 km/h 91 % 0 mm 0 W/m2
02:16 10.8 °C 9.4 °C 1000.6 hPa SW 11.3 km/h 25.7 km/h 91 % 0 mm 0 W/m2
02:21 10.8 °C 9.2 °C 1000.6 hPa SW 12.9 km/h 20.9 km/h 90 % 0 mm 0 W/m2
02:26 10.8 °C 9.2 °C 1000.6 hPa SW 12.9 km/h 20.9 km/h 90 % 0 mm 0 W/m2
02:31 10.8 °C 9.2 °C 1000.6 hPa WSW 11.3 km/h 22.5 km/h 90 % 0 mm 0 W/m2
02:36 10.8 °C 9.2 °C 1000.2 hPa WSW 12.9 km/h 22.5 km/h 90 % 0 mm 0 W/m2
02:41 10.9 °C 9.2 °C 1000.2 hPa WSW 14.5 km/h 24.1 km/h 89 % 0 mm 0 W/m2
02:46 10.9 °C 9.2 °C 1000.2 hPa SW 12.9 km/h 24.1 km/h 89 % 0 mm 0 W/m2
02:51 10.9 °C 9.2 °C 1000.2 hPa SW 12.9 km/h 24.1 km/h 89 % 0 mm 0 W/m2
02:56 10.9 °C 9.3 °C 1000.2 hPa SW 12.9 km/h 22.5 km/h 90 % 0 mm 0 W/m2
03:01 10.8 °C 9.2 °C 1000.2 hPa SW 14.5 km/h 22.5 km/h 90 % 0.25 mm 0 W/m2
03:06 10.7 °C 9.3 °C 999.9 hPa SW 12.9 km/h 24.1 km/h 91 % 0.25 mm 0 W/m2
03:11 10.7 °C 9.3 °C 999.9 hPa SW 11.3 km/h 24.1 km/h 91 % 0.25 mm 0 W/m2
03:16 10.6 °C 9.2 °C 999.9 hPa WSW 8 km/h 14.5 km/h 91 % 0.25 mm 0 W/m2
03:21 10.5 °C 9.1 °C 999.5 hPa WSW 8 km/h 16.1 km/h 91 % 0.25 mm 0 W/m2
03:26 10.5 °C 9.1 °C 999.9 hPa SW 8 km/h 16.1 km/h 91 % 0.25 mm 0 W/m2
03:31 10.4 °C 9 °C 999.9 hPa WSW 9.7 km/h 20.9 km/h 91 % 0.25 mm 0 W/m2
03:36 10.5 °C 9.1 °C 999.9 hPa WSW 12.9 km/h 22.5 km/h 91 % 0.25 mm 0 W/m2
03:41 10.6 °C 9 °C 999.5 hPa WSW 12.9 km/h 22.5 km/h 90 % 0.25 mm 0 W/m2
03:46 10.7 °C 8.9 °C 999.5 hPa WSW 12.9 km/h 22.5 km/h 89 % 0.25 mm 0 W/m2
03:51 10.7 °C 8.9 °C 999.5 hPa WSW 14.5 km/h 22.5 km/h 89 % 0.25 mm 0 W/m2
03:56 10.8 °C 9.1 °C 999.5 hPa SW 9.7 km/h 19.3 km/h 89 % 0.25 mm 0 W/m2
04:01 10.7 °C 8.9 °C 999.5 hPa SW 9.7 km/h 16.1 km/h 89 % 0 mm 0 W/m2
04:06 10.7 °C 8.9 °C 999.5 hPa SW 11.3 km/h 17.7 km/h 89 % 0 mm 0 W/m2
04:11 10.7 °C 8.9 °C 999.2 hPa SW 11.3 km/h 17.7 km/h 89 % 0 mm 0 W/m2
04:17 10.7 °C 8.9 °C 999.2 hPa SW 11.3 km/h 17.7 km/h 89 % 0 mm 0 W/m2
04:22 10.6 °C 8.9 °C 999.2 hPa SW 11.3 km/h 17.7 km/h 89 % 0 mm 0 W/m2
04:27 10.6 °C 8.9 °C 999.2 hPa SW 12.9 km/h 20.9 km/h 89 % 0 mm 0 W/m2
04:32 10.6 °C 8.9 °C 999.2 hPa SW 14.5 km/h 20.9 km/h 89 % 0 mm 0 W/m2
04:37 10.7 °C 8.8 °C 999.2 hPa SW 16.1 km/h 29 km/h 88 % 0 mm 0 W/m2
04:42 10.8 °C 8.9 °C 999.2 hPa SW 19.3 km/h 33.8 km/h 88 % 0 mm 0 W/m2
04:47 10.8 °C 8.9 °C 999.2 hPa SW 19.3 km/h 33.8 km/h 88 % 0 mm 0 W/m2
04:52 10.8 °C 8.9 °C 999.2 hPa SW 17.7 km/h 30.6 km/h 88 % 0 mm 0 W/m2
04:57 10.8 °C 8.9 °C 998.9 hPa SW 17.7 km/h 29 km/h 88 % 0 mm 0 W/m2
05:02 10.8 °C 8.9 °C 998.9 hPa SW 16.1 km/h 29 km/h 88 % 0 mm 0 W/m2
05:07 10.8 °C 8.9 °C 998.9 hPa SW 16.1 km/h 25.7 km/h 88 % 0 mm 0 W/m2
05:12 10.8 °C 8.7 °C 998.9 hPa SW 17.7 km/h 30.6 km/h 87 % 0 mm 0 W/m2
05:22 10.9 °C 8.8 °C 998.9 hPa SW 17.7 km/h 30.6 km/h 87 % 0 mm 0 W/m2
05:27 10.9 °C 8.8 °C 998.9 hPa SW 17.7 km/h 30.6 km/h 87 % 0 mm 0 W/m2
05:32 10.8 °C 8.7 °C 998.5 hPa SW 14.5 km/h 25.7 km/h 87 % 0 mm 0 W/m2
05:37 10.8 °C 8.7 °C 998.5 hPa SW 16.1 km/h 33.8 km/h 87 % 0 mm 0 W/m2
05:42 10.7 °C 8.4 °C 998.5 hPa SW 16.1 km/h 33.8 km/h 86 % 0 mm 0 W/m2
05:47 10.7 °C 8.4 °C 998.9 hPa SW 17.7 km/h 32.2 km/h 86 % 0 mm 0 W/m2
05:52 10.7 °C 8.4 °C 998.5 hPa SW 19.3 km/h 32.2 km/h 86 % 0 mm 0 W/m2
05:57 10.8 °C 8.4 °C 998.9 hPa SW 17.7 km/h 30.6 km/h 85 % 0 mm 0 W/m2
06:02 10.8 °C 8.4 °C 998.5 hPa SW 17.7 km/h 29 km/h 85 % 0 mm 0 W/m2
06:07 10.8 °C 8.4 °C 998.5 hPa SW 19.3 km/h 33.8 km/h 85 % 0 mm 0 W/m2
06:12 10.7 °C 8.3 °C 998.5 hPa SW 19.3 km/h 33.8 km/h 85 % 0 mm 0 W/m2
06:17 10.7 °C 8.3 °C 998.2 hPa SW 17.7 km/h 33.8 km/h 85 % 0 mm 5 W/m2
06:22 10.7 °C 8.3 °C 998.2 hPa SW 19.3 km/h 33.8 km/h 85 % 0 mm 11 W/m2
06:27 10.7 °C 8.3 °C 998.2 hPa SW 20.9 km/h 33.8 km/h 85 % 0 mm 12 W/m2
06:32 10.6 °C 8.2 °C 998.2 hPa SW 19.3 km/h 30.6 km/h 85 % 0 mm 19 W/m2
06:37 10.6 °C 8.2 °C 998.2 hPa SW 17.7 km/h 30.6 km/h 85 % 0 mm 32 W/m2
06:42 10.6 °C 8.2 °C 998.2 hPa SW 17.7 km/h 33.8 km/h 85 % 0 mm 37 W/m2
06:44 10.6 °C 8 °C 998.2 hPa SW 17.7 km/h 33.8 km/h 84 % 0 mm 35 W/m2
06:49 10.6 °C 8 °C 998.2 hPa SW 20.9 km/h 35.4 km/h 84 % 0 mm 21 W/m2
06:54 10.6 °C 8 °C 998.2 hPa SW 22.5 km/h 37 km/h 84 % 0 mm 26 W/m2
06:59 10.6 °C 8 °C 998.2 hPa SW 22.5 km/h 38.6 km/h 84 % 0 mm 28 W/m2
07:04 10.6 °C 8 °C 998.2 hPa SW 22.5 km/h 38.6 km/h 84 % 0 mm 35 W/m2
07:09 10.5 °C 7.9 °C 998.2 hPa SW 19.3 km/h 33.8 km/h 84 % 0 mm 28 W/m2
07:14 10.4 °C 7.6 °C 997.9 hPa SW 20.9 km/h 32.2 km/h 83 % 0 mm 28 W/m2
07:19 10.3 °C 7.2 °C 998.2 hPa WSW 20.9 km/h 33.8 km/h 81 % 0 mm 25 W/m2
07:24 10.2 °C 7.1 °C 998.2 hPa WSW 19.3 km/h 33.8 km/h 81 % 0 mm 33 W/m2
07:29 10.1 °C 7 °C 998.2 hPa WSW 17.7 km/h 35.4 km/h 81 % 0 mm 49 W/m2
07:34 10.1 °C 7 °C 998.2 hPa WSW 17.7 km/h 35.4 km/h 81 % 0 mm 25 W/m2
07:39 10 °C 6.7 °C 998.2 hPa WSW 16.1 km/h 32.2 km/h 80 % 0 mm 33 W/m2
07:44 10 °C 6.7 °C 998.2 hPa WSW 14.5 km/h 30.6 km/h 80 % 0 mm 40 W/m2
07:49 10 °C 6.7 °C 998.2 hPa WSW 14.5 km/h 24.1 km/h 80 % 0 mm 49 W/m2
07:54 9.9 °C 6.8 °C 998.2 hPa WSW 14.5 km/h 24.1 km/h 81 % 0 mm 47 W/m2
07:59 9.9 °C 6.8 °C 997.9 hPa WSW 12.9 km/h 22.5 km/h 81 % 0 mm 74 W/m2
08:04 9.9 °C 6.6 °C 997.9 hPa WSW 16.1 km/h 29 km/h 80 % 0 mm 49 W/m2
08:09 9.9 °C 6.6 °C 997.5 hPa WSW 16.1 km/h 29 km/h 80 % 0 mm 62 W/m2
08:14 9.9 °C 6.8 °C 997.9 hPa WSW 16.1 km/h 24.1 km/h 81 % 0 mm 65 W/m2
08:20 9.9 °C 6.9 °C 997.9 hPa WSW 16.1 km/h 24.1 km/h 82 % 0 mm 83 W/m2
08:25 9.9 °C 7.2 °C 997.5 hPa WSW 12.9 km/h 20.9 km/h 83 % 0 mm 67 W/m2
08:30 9.9 °C 7.2 °C 997.5 hPa SW 11.3 km/h 19.3 km/h 83 % 0 mm 104 W/m2
08:35 9.9 °C 7.3 °C 997.5 hPa SW 11.3 km/h 19.3 km/h 84 % 0 mm 116 W/m2
08:40 9.9 °C 7.5 °C 997.5 hPa SW 11.3 km/h 19.3 km/h 85 % 0 mm 109 W/m2
08:45 9.9 °C 7.5 °C 997.5 hPa SW 11.3 km/h 19.3 km/h 85 % 0 mm 102 W/m2
08:50 10 °C 7.6 °C 997.5 hPa SW 11.3 km/h 22.5 km/h 85 % 0 mm 123 W/m2
08:55 10 °C 7.8 °C 997.5 hPa SW 11.3 km/h 22.5 km/h 86 % 0 mm 113 W/m2
09:00 10.1 °C 7.9 °C 997.2 hPa SW 11.3 km/h 17.7 km/h 86 % 0 mm 90 W/m2
09:05 10.1 °C 7.9 °C 997.2 hPa WSW 9.7 km/h 16.1 km/h 86 % 0 mm 107 W/m2
09:10 10.2 °C 8.1 °C 997.2 hPa WSW 9.7 km/h 16.1 km/h 87 % 0 mm 109 W/m2
09:15 10.2 °C 8.1 °C 997.2 hPa WSW 11.3 km/h 25.7 km/h 87 % 0 mm 105 W/m2
09:20 10.2 °C 8.1 °C 997.2 hPa West 11.3 km/h 25.7 km/h 87 % 0 mm 97 W/m2
09:25 10.2 °C 8.1 °C 997.2 hPa West 12.9 km/h 20.9 km/h 87 % 0 mm 107 W/m2
09:30 10.2 °C 8.1 °C 997.2 hPa West 12.9 km/h 24.1 km/h 87 % 0 mm 86 W/m2
09:35 10.2 °C 7.9 °C 997.2 hPa West 14.5 km/h 24.1 km/h 86 % 0 mm 72 W/m2
09:40 10.1 °C 7.9 °C 997.2 hPa West 16.1 km/h 24.1 km/h 86 % 0 mm 63 W/m2
09:45 10.1 °C 7.9 °C 997.2 hPa WSW 16.1 km/h 24.1 km/h 86 % 0 mm 56 W/m2
09:50 10 °C 7.8 °C 997.2 hPa West 14.5 km/h 22.5 km/h 86 % 0 mm 58 W/m2
09:55 9.9 °C 7.8 °C 997.2 hPa West 16.1 km/h 25.7 km/h 87 % 0 mm 53 W/m2
10:00 9.8 °C 7.7 °C 997.2 hPa West 16.1 km/h 25.7 km/h 87 % 0 mm 54 W/m2
10:05 9.6 °C 7.4 °C 997.2 hPa WNW 17.7 km/h 37 km/h 86 % 0.25 mm 72 W/m2
10:10 9.4 °C 7.3 °C 997.2 hPa WNW 16.1 km/h 37 km/h 87 % 0.25 mm 113 W/m2
10:15 9.4 °C 7.3 °C 997.2 hPa WNW 16.1 km/h 33.8 km/h 87 % 0.25 mm 158 W/m2
10:20 9.3 °C 7.2 °C 997.2 hPa WNW 17.7 km/h 33.8 km/h 87 % 0.25 mm 109 W/m2
10:25 9.2 °C 7.2 °C 997.2 hPa WNW 19.3 km/h 32.2 km/h 87 % 0.25 mm 91 W/m2
10:30 9.1 °C 6.9 °C 997.2 hPa West 17.7 km/h 32.2 km/h 86 % 0.25 mm 90 W/m2
10:35 9 °C 6.8 °C 997.2 hPa West 17.7 km/h 30.6 km/h 86 % 0.25 mm 107 W/m2
10:40 8.9 °C 6.7 °C 997.2 hPa West 17.7 km/h 32.2 km/h 86 % 0.25 mm 137 W/m2
10:45 8.9 °C 6.7 °C 997.2 hPa West 19.3 km/h 35.4 km/h 86 % 0.51 mm 188 W/m2
10:50 8.9 °C 6.8 °C 997.2 hPa West 17.7 km/h 35.4 km/h 87 % 0.51 mm 236 W/m2
10:55 9 °C 6.9 °C 997.2 hPa West 17.7 km/h 29 km/h 87 % 0.51 mm 207 W/m2
11:00 9.1 °C 7.1 °C 997.2 hPa West 19.3 km/h 37 km/h 87 % 0.51 mm 158 W/m2
11:05 9.1 °C 6.9 °C 997.2 hPa West 19.3 km/h 37 km/h 86 % 0.25 mm 123 W/m2
11:10 9.1 °C 6.9 °C 997.5 hPa West 19.3 km/h 33.8 km/h 86 % 0.25 mm 97 W/m2
11:15 9.1 °C 6.9 °C 997.5 hPa West 17.7 km/h 32.2 km/h 86 % 0.25 mm 91 W/m2
11:20 9 °C 6.8 °C 997.5 hPa West 17.7 km/h 35.4 km/h 86 % 0.25 mm 98 W/m2
11:25 8.9 °C 6.7 °C 997.5 hPa West 19.3 km/h 35.4 km/h 86 % 0.25 mm 60 W/m2
11:30 8.9 °C 6.7 °C 997.5 hPa West 16.1 km/h 25.7 km/h 86 % 0.25 mm 58 W/m2
11:35 8.8 °C 6.8 °C 997.5 hPa West 17.7 km/h 33.8 km/h 87 % 0.25 mm 70 W/m2
11:40 8.6 °C 6.4 °C 997.2 hPa West 20.9 km/h 37 km/h 86 % 0.25 mm 84 W/m2
11:45 8.5 °C 6.3 °C 997.2 hPa West 20.9 km/h 37 km/h 86 % 0 mm 111 W/m2
11:50 8.5 °C 6.4 °C 997.5 hPa West 17.7 km/h 30.6 km/h 87 % 0.25 mm 114 W/m2
11:55 8.4 °C 6.3 °C 997.5 hPa West 16.1 km/h 29 km/h 87 % 0.25 mm 127 W/m2
12:00 8.4 °C 6.5 °C 997.5 hPa West 16.1 km/h 29 km/h 88 % 0.25 mm 160 W/m2
12:05 8.4 °C 6.5 °C 997.5 hPa West 17.7 km/h 35.4 km/h 88 % 0.25 mm 169 W/m2
12:10 8.5 °C 6.6 °C 997.5 hPa West 19.3 km/h 35.4 km/h 88 % 0.25 mm 169 W/m2
12:15 8.5 °C 6.6 °C 997.5 hPa West 19.3 km/h 32.2 km/h 88 % 0.25 mm 162 W/m2
12:20 8.6 °C 6.6 °C 997.5 hPa West 16.1 km/h 32.2 km/h 87 % 0.25 mm 132 W/m2
12:25 8.6 °C 6.6 °C 997.2 hPa West 14.5 km/h 25.7 km/h 87 % 0.25 mm 127 W/m2
12:30 8.5 °C 6.3 °C 997.2 hPa West 14.5 km/h 24.1 km/h 86 % 0.25 mm 134 W/m2
12:35 8.5 °C 6.3 °C 997.2 hPa West 14.5 km/h 22.5 km/h 86 % 0.25 mm 162 W/m2
12:40 8.6 °C 6.4 °C 997.2 hPa West 16.1 km/h 25.7 km/h 86 % 0.25 mm 165 W/m2
12:45 8.7 °C 6.5 °C 997.2 hPa West 17.7 km/h 25.7 km/h 86 % 0 mm 176 W/m2
12:50 8.8 °C 6.6 °C 997.2 hPa West 17.7 km/h 25.7 km/h 86 % 0 mm 199 W/m2
12:55 8.9 °C 6.7 °C 997.2 hPa West 17.7 km/h 30.6 km/h 86 % 0 mm 76 W/m2
13:00 8.9 °C 6.8 °C 997.5 hPa West 20.9 km/h 35.4 km/h 87 % 0 mm 42 W/m2
13:05 8.7 °C 6.7 °C 997.5 hPa West 22.5 km/h 35.4 km/h 87 % 0.25 mm 151 W/m2
13:10 8.6 °C 6.7 °C 997.2 hPa WNW 19.3 km/h 33.8 km/h 88 % 0.25 mm 236 W/m2
13:15 8.4 °C 6.3 °C 997.5 hPa West 17.7 km/h 33.8 km/h 87 % 0.25 mm 183 W/m2
13:20 8.3 °C 6.3 °C 997.5 hPa West 19.3 km/h 37 km/h 87 % 0.25 mm 200 W/m2
13:25 8.3 °C 6.1 °C 997.5 hPa West 20.9 km/h 37 km/h 86 % 0.25 mm 206 W/m2
13:30 8.4 °C 6.2 °C 997.5 hPa West 20.9 km/h 33.8 km/h 86 % 0.25 mm 318 W/m2
13:35 8.6 °C 6.2 °C 997.5 hPa West 20.9 km/h 45.1 km/h 85 % 0.25 mm 338 W/m2
13:41 8.7 °C 6.2 °C 997.5 hPa West 20.9 km/h 45.1 km/h 84 % 0.25 mm 271 W/m2
13:45 8.8 °C 6.1 °C 997.5 hPa West 20.9 km/h 35.4 km/h 83 % 0.25 mm 297 W/m2
13:50 9 °C 6.1 °C 997.5 hPa West 22.5 km/h 40.2 km/h 82 % 0.25 mm 547 W/m2
13:56 9.1 °C 5.7 °C 997.9 hPa West 27.4 km/h 43.5 km/h 79 % 0.25 mm 332 W/m2
14:01 9.2 °C 5.6 °C 997.9 hPa West 29 km/h 43.5 km/h 78 % 0.25 mm 657 W/m2
14:06 9.4 °C 5.6 °C 997.9 hPa West 27.4 km/h 48.3 km/h 77 % 0 mm 598 W/m2
14:16 9.9 °C 5.5 °C 998.2 hPa WNW 24.1 km/h 41.8 km/h 74 % 0 mm 230 W/m2
14:21 9.8 °C 5.4 °C 997.9 hPa West 22.5 km/h 38.6 km/h 74 % 0 mm 610 W/m2
14:26 9.9 °C 5.3 °C 997.9 hPa West 22.5 km/h 37 km/h 73 % 0 mm 543 W/m2
14:31 10 °C 5.4 °C 997.9 hPa West 22.5 km/h 37 km/h 73 % 0 mm 543 W/m2
14:36 10.2 °C 5.2 °C 997.9 hPa West 22.5 km/h 40.2 km/h 71 % 0 mm 527 W/m2
14:41 10.4 °C 4.7 °C 997.9 hPa West 22.5 km/h 40.2 km/h 68 % 0 mm 534 W/m2
14:46 10.4 °C 4.3 °C 997.9 hPa WNW 25.7 km/h 46.7 km/h 66 % 0 mm 485 W/m2
14:51 10.4 °C 4.3 °C 997.9 hPa West 27.4 km/h 46.7 km/h 66 % 0 mm 480 W/m2
14:56 10.4 °C 4.3 °C 997.9 hPa West 22.5 km/h 40.2 km/h 66 % 0 mm 475 W/m2
15:01 10.4 °C 4.3 °C 997.9 hPa West 22.5 km/h 40.2 km/h 66 % 0 mm 424 W/m2
15:06 10.4 °C 4.3 °C 997.5 hPa WNW 24.1 km/h 37 km/h 66 % 0 mm 415 W/m2
15:11 10.3 °C 4.4 °C 997.9 hPa WNW 22.5 km/h 37 km/h 67 % 0 mm 139 W/m2
15:12 10.3 °C 4.4 °C 997.9 hPa WNW 22.5 km/h 37 km/h 67 % 0 mm 540 W/m2
15:17 10.2 °C 4.3 °C 997.9 hPa West 24.1 km/h 41.8 km/h 67 % 0 mm 455 W/m2
15:22 10.1 °C 3.8 °C 997.9 hPa West 27.4 km/h 43.5 km/h 65 % 0 mm 427 W/m2
15:27 10.2 °C 3 °C 997.9 hPa West 27.4 km/h 43.5 km/h 61 % 0 mm 418 W/m2
15:32 10.2 °C 3.2 °C 998.2 hPa WNW 25.7 km/h 43.5 km/h 62 % 0 mm 385 W/m2
15:42 10.2 °C 2.6 °C 998.2 hPa West 29 km/h 51.5 km/h 59 % 0 mm 357 W/m2
15:47 10.2 °C 2.3 °C 998.2 hPa West 27.4 km/h 51.5 km/h 58 % 0 mm 350 W/m2
15:52 10.1 °C 2.2 °C 998.2 hPa West 27.4 km/h 48.3 km/h 58 % 0 mm 336 W/m2
15:57 10.1 °C 2.2 °C 998.2 hPa West 27.4 km/h 46.7 km/h 58 % 0 mm 318 W/m2
16:02 10.1 °C 2.2 °C 998.2 hPa West 25.7 km/h 46.7 km/h 58 % 0 mm 304 W/m2
16:07 9.9 °C 1.8 °C 998.2 hPa West 27.4 km/h 45.1 km/h 57 % 0 mm 292 W/m2
16:12 9.9 °C 1.8 °C 998.2 hPa West 27.4 km/h 45.1 km/h 57 % 0 mm 274 W/m2
16:17 9.9 °C 2 °C 998.2 hPa West 25.7 km/h 45.1 km/h 58 % 0 mm 262 W/m2
16:22 9.9 °C 2 °C 998.2 hPa West 27.4 km/h 43.5 km/h 58 % 0 mm 250 W/m2
16:27 9.9 °C 2.3 °C 998.2 hPa West 27.4 km/h 43.5 km/h 59 % 0 mm 234 W/m2
16:32 9.9 °C 2.5 °C 998.2 hPa West 25.7 km/h 43.5 km/h 60 % 0 mm 221 W/m2
16:37 9.9 °C 2.5 °C 998.2 hPa West 24.1 km/h 45.1 km/h 60 % 0 mm 207 W/m2
16:42 9.8 °C 2.4 °C 998.2 hPa West 24.1 km/h 46.7 km/h 60 % 0 mm 193 W/m2
16:47 9.7 °C 2.3 °C 998.5 hPa West 25.7 km/h 46.7 km/h 60 % 0 mm 176 W/m2
16:48 9.7 °C 2.3 °C 998.5 hPa West 25.7 km/h 46.7 km/h 60 % 0 mm 176 W/m2
16:53 9.7 °C 2.8 °C 998.5 hPa West 24.1 km/h 43.5 km/h 62 % 0 mm 165 W/m2
16:58 9.7 °C 2.8 °C 998.5 hPa West 19.3 km/h 37 km/h 62 % 0 mm 155 W/m2
17:03 9.6 °C 2.7 °C 998.5 hPa West 19.3 km/h 37 km/h 62 % 0 mm 146 W/m2
17:08 9.6 °C 2.9 °C 998.9 hPa West 19.3 km/h 37 km/h 63 % 0 mm 132 W/m2
17:13 9.5 °C 2.6 °C 998.9 hPa West 19.3 km/h 33.8 km/h 62 % 0 mm 114 W/m2
17:18 9.4 °C 2.5 °C 998.9 hPa West 17.7 km/h 33.8 km/h 62 % 0 mm 102 W/m2
17:23 9.3 °C 2.2 °C 998.9 hPa West 17.7 km/h 33.8 km/h 61 % 0 mm 88 W/m2
17:28 9.2 °C 2.1 °C 998.9 hPa West 20.9 km/h 37 km/h 61 % 0 mm 76 W/m2
17:33 9.1 °C 1.7 °C 998.9 hPa West 20.9 km/h 40.2 km/h 60 % 0 mm 62 W/m2
17:38 8.9 °C 1.8 °C 998.9 hPa West 19.3 km/h 40.2 km/h 61 % 0 mm 47 W/m2
17:43 8.9 °C 2 °C 998.9 hPa West 14.5 km/h 30.6 km/h 62 % 0 mm 25 W/m2
17:48 8.7 °C 1.8 °C 998.9 hPa West 14.5 km/h 25.7 km/h 62 % 0 mm 19 W/m2
17:53 8.7 °C 1.8 °C 998.9 hPa West 16.1 km/h 25.7 km/h 62 % 0 mm 14 W/m2
17:58 8.6 °C 1.9 °C 999.2 hPa West 14.5 km/h 25.7 km/h 63 % 0 mm 12 W/m2
18:01 8.5 °C 1.8 °C 999.2 hPa West 12.9 km/h 25.7 km/h 63 % 0 mm 11 W/m2
18:06 8.4 °C 2 °C 999.2 hPa West 12.9 km/h 25.7 km/h 64 % 0 mm 9 W/m2
18:11 8.3 °C 2.1 °C 998.9 hPa West 11.3 km/h 19.3 km/h 65 % 0 mm 7 W/m2
18:16 8.1 °C 2.1 °C 999.2 hPa West 9.7 km/h 17.7 km/h 66 % 0 mm 5 W/m2
18:21 8.1 °C 2.3 °C 999.2 hPa West 6.4 km/h 12.9 km/h 67 % 0 mm 0 W/m2
18:26 8 °C 2.2 °C 999.2 hPa WSW 4.8 km/h 9.7 km/h 67 % 0 mm 0 W/m2
18:31 7.9 °C 2.3 °C 999.2 hPa WSW 3.2 km/h 9.7 km/h 68 % 0 mm 0 W/m2
18:36 7.8 °C 2.3 °C 999.2 hPa WSW 3.2 km/h 8 km/h 68 % 0 mm 0 W/m2
18:41 7.7 °C 2.2 °C 999.5 hPa WSW 1.6 km/h 8 km/h 68 % 0 mm 0 W/m2
18:46 7.7 °C 2.4 °C 999.5 hPa WSW 1.6 km/h 8 km/h 69 % 0 mm 0 W/m2
18:51 7.7 °C 2.4 °C 999.5 hPa SW 4.8 km/h 14.5 km/h 69 % 0 mm 0 W/m2
18:56 7.7 °C 2.6 °C 999.5 hPa SW 6.4 km/h 14.5 km/h 70 % 0 mm 0 W/m2
19:01 7.8 °C 2.9 °C 999.5 hPa SW 6.4 km/h 11.3 km/h 71 % 0 mm 0 W/m2
19:06 7.8 °C 3.1 °C 999.5 hPa WSW 4.8 km/h 9.7 km/h 72 % 0 mm 0 W/m2
19:11 7.7 °C 2.9 °C 999.5 hPa WSW 6.4 km/h 14.5 km/h 72 % 0 mm 0 W/m2
19:16 7.7 °C 2.8 °C 999.5 hPa WSW 8 km/h 19.3 km/h 71 % 0 mm 0 W/m2
19:21 7.7 °C 3.2 °C 999.5 hPa WSW 9.7 km/h 19.3 km/h 73 % 0 mm 0 W/m2
19:26 7.6 °C 3.1 °C 999.9 hPa West 11.3 km/h 19.3 km/h 73 % 0 mm 0 W/m2
19:31 7.6 °C 3.3 °C 999.9 hPa West 9.7 km/h 14.5 km/h 74 % 0 mm 0 W/m2
19:36 7.6 °C 3.4 °C 999.9 hPa West 11.3 km/h 19.3 km/h 75 % 0 mm 0 W/m2
19:41 7.6 °C 3.8 °C 1000.2 hPa WSW 16.1 km/h 40.2 km/h 77 % 0 mm 0 W/m2
19:46 7.2 °C 3.8 °C 1000.2 hPa WSW 19.3 km/h 40.2 km/h 79 % 0 mm 0 W/m2
19:51 7 °C 3.8 °C 1000.2 hPa WSW 17.7 km/h 38.6 km/h 80 % 0 mm 0 W/m2
19:56 6.9 °C 3.9 °C 1000.2 hPa WSW 17.7 km/h 30.6 km/h 81 % 0 mm 0 W/m2
20:01 6.6 °C 3.6 °C 1000.2 hPa SW 17.7 km/h 30.6 km/h 81 % 0 mm 0 W/m2
20:06 6.3 °C 3.4 °C 1000.2 hPa WSW 17.7 km/h 30.6 km/h 82 % 0 mm 0 W/m2
20:11 6.1 °C 3.4 °C 1000.2 hPa WSW 12.9 km/h 29 km/h 83 % 0 mm 0 W/m2
20:17 6 °C 3.3 °C 1000.2 hPa WSW 11.3 km/h 19.3 km/h 83 % 0 mm 0 W/m2
20:22 5.9 °C 3.4 °C 1000.2 hPa SW 11.3 km/h 19.3 km/h 84 % 0 mm 0 W/m2
20:27 5.8 °C 3.3 °C 1000.2 hPa SW 9.7 km/h 17.7 km/h 84 % 0 mm 0 W/m2
20:32 5.6 °C 3.1 °C 1000.2 hPa SW 8 km/h 14.5 km/h 84 % 0 mm 0 W/m2
20:37 5.6 °C 3.3 °C 1000.2 hPa SW 8 km/h 14.5 km/h 85 % 0 mm 0 W/m2
20:42 5.4 °C 3.1 °C 1000.2 hPa SW 8 km/h 12.9 km/h 85 % 0 mm 0 W/m2
20:47 5.3 °C 3.2 °C 1000.2 hPa WSW 6.4 km/h 12.9 km/h 86 % 0 mm 0 W/m2
20:52 5.2 °C 3.1 °C 1000.2 hPa WSW 6.4 km/h 12.9 km/h 86 % 0 mm 0 W/m2
20:57 5.1 °C 2.9 °C 1000.2 hPa WSW 9.7 km/h 19.3 km/h 86 % 0 mm 0 W/m2
21:02 5.2 °C 3.2 °C 1000.2 hPa WSW 12.9 km/h 19.3 km/h 87 % 0 mm 0 W/m2
21:07 5.5 °C 3.5 °C 999.9 hPa WSW 14.5 km/h 25.7 km/h 87 % 0 mm 0 W/m2
21:12 5.7 °C 3.6 °C 999.9 hPa WSW 14.5 km/h 25.7 km/h 86 % 0 mm 0 W/m2
21:17 5.9 °C 3.6 °C 999.9 hPa SW 16.1 km/h 25.7 km/h 85 % 0 mm 0 W/m2
21:22 6.1 °C 3.6 °C 999.9 hPa WSW 16.1 km/h 25.7 km/h 84 % 0 mm 0 W/m2
21:27 6.1 °C 3.6 °C 999.9 hPa WSW 17.7 km/h 30.6 km/h 84 % 0 mm 0 W/m2
21:32 6.1 °C 3.6 °C 999.9 hPa WSW 16.1 km/h 30.6 km/h 84 % 0 mm 0 W/m2
21:37 6.2 °C 3.5 °C 999.9 hPa WSW 16.1 km/h 29 km/h 83 % 0 mm 0 W/m2
21:42 6.2 °C 3.5 °C 999.9 hPa WSW 17.7 km/h 30.6 km/h 83 % 0 mm 0 W/m2
21:52 6.3 °C 3.4 °C 999.9 hPa WSW 20.9 km/h 37 km/h 82 % 0 mm 0 W/m2
21:57 6.3 °C 3.3 °C 999.9 hPa WSW 20.9 km/h 37 km/h 81 % 0 mm 0 W/m2
22:02 6.4 °C 3.2 °C 999.9 hPa WSW 20.9 km/h 35.4 km/h 80 % 0 mm 0 W/m2
22:07 6.4 °C 3.2 °C 999.9 hPa WSW 20.9 km/h 35.4 km/h 80 % 0 mm 0 W/m2
22:12 6.3 °C 3.1 °C 999.9 hPa WSW 17.7 km/h 30.6 km/h 80 % 0 mm 0 W/m2
22:17 6.3 °C 3.3 °C 999.9 hPa WSW 16.1 km/h 25.7 km/h 81 % 0 mm 0 W/m2
22:22 6.2 °C 3.2 °C 999.5 hPa WSW 16.1 km/h 25.7 km/h 81 % 0 mm 0 W/m2
22:27 6.1 °C 3.1 °C 999.5 hPa WSW 16.1 km/h 25.7 km/h 81 % 0 mm 0 W/m2
22:32 6.1 °C 3.1 °C 999.5 hPa WSW 16.1 km/h 25.7 km/h 81 % 0 mm 0 W/m2
22:37 5.9 °C 3.1 °C 999.5 hPa WSW 14.5 km/h 29 km/h 82 % 0 mm 0 W/m2
22:42 5.9 °C 3.1 °C 999.5 hPa WSW 16.1 km/h 30.6 km/h 82 % 0 mm 0 W/m2
22:47 5.9 °C 3.1 °C 999.5 hPa WSW 17.7 km/h 30.6 km/h 82 % 0 mm 0 W/m2
22:52 5.9 °C 3.1 °C 999.5 hPa WSW 17.7 km/h 32.2 km/h 82 % 0 mm 0 W/m2
22:57 5.9 °C 3.1 °C 999.5 hPa WSW 17.7 km/h 32.2 km/h 82 % 0 mm 0 W/m2
23:02 5.8 °C 2.9 °C 999.5 hPa WSW 16.1 km/h 29 km/h 82 % 0 mm 0 W/m2
23:07 5.9 °C 3.1 °C 999.5 hPa SW 16.1 km/h 29 km/h 82 % 0 mm 0 W/m2
23:12 5.8 °C 2.9 °C 999.5 hPa SW 16.1 km/h 29 km/h 82 % 0 mm 0 W/m2
23:17 5.8 °C 3.1 °C 999.5 hPa SW 16.1 km/h 24.1 km/h 83 % 0 mm 0 W/m2
23:22 5.8 °C 3.1 °C 999.5 hPa SW 17.7 km/h 35.4 km/h 83 % 0 mm 0 W/m2
23:27 5.8 °C 3.3 °C 999.9 hPa SW 22.5 km/h 45.1 km/h 84 % 0 mm 0 W/m2
23:32 5.6 °C 3.3 °C 999.9 hPa WSW 25.7 km/h 49.9 km/h 85 % 0.25 mm 0 W/m2
23:37 5.3 °C 3.3 °C 1000.2 hPa WSW 25.7 km/h 49.9 km/h 87 % 0.51 mm 0 W/m2
23:42 5.1 °C 3.1 °C 1000.2 hPa WSW 25.7 km/h 48.3 km/h 87 % 0.51 mm 0 W/m2
23:47 4.9 °C 2.9 °C 999.9 hPa WSW 25.7 km/h 43.5 km/h 87 % 0.51 mm 0 W/m2
23:52 4.6 °C 2.6 °C 999.9 hPa WSW 22.5 km/h 43.5 km/h 87 % 0.51 mm 0 W/m2
23:57 4.4 °C 2.6 °C 999.9 hPa WSW 19.3 km/h 35.4 km/h 88 % 0.51 mm 0 W/m2
Delerius-Weather
Compliments of Weather Underground - 2.25 mb

Data updates at regular intervals.